Terminal Aerodrome Forecast
Issued by NWS Melbourne, FL

Home | Current Version | Previous Version | Text Only | Print | Product List | Glossary On
Versions: 1 2 3 4 5 6 7 8 9 10 11 12 13 14 15 16
000
FTUS42 KMLB 242330
TAFDAB
TAF
KDAB 242330Z 2500/2524 02005KT P6SM FEW030
     FM250600 00000KT 3SM BR FEW004 SCT010
      TEMPO 2509/2513 1SM BR BKN004
     FM251300 23004KT 5SM BR SCT004 BKN010
     FM251500 25006KT P6SM SCT015 SCT035=

USA.gov is the U.S. government's official web portal to all federal, state and local government web resources and services.